createdAt,value
2018-06-22T00:01:42.206Z,14.59
2018-06-22T00:04:11.008Z,14.55
2018-06-22T00:06:39.798Z,14.48
2018-06-22T00:09:10.112Z,14.39
2018-06-22T00:11:39.168Z,14.50
2018-06-22T00:14:08.420Z,14.38
2018-06-22T00:16:37.339Z,14.37
2018-06-22T00:19:06.130Z,14.37
2018-06-22T00:21:34.857Z,14.36
2018-06-22T00:24:03.633Z,14.48
2018-06-22T00:26:32.289Z,14.52
2018-06-22T00:29:01.412Z,14.57
2018-06-22T00:31:30.095Z,14.37
2018-06-22T00:33:58.813Z,14.31
2018-06-22T00:36:27.672Z,14.31
2018-06-22T00:38:56.379Z,14.30
2018-06-22T00:41:25.223Z,14.19
2018-06-22T00:43:54.096Z,13.95
2018-06-22T00:46:24.599Z,13.86
2018-06-22T00:48:53.403Z,13.88
2018-06-22T00:51:22.177Z,13.83
2018-06-22T00:54:01.906Z,13.69
2018-06-22T00:56:30.798Z,13.57
2018-06-22T00:58:59.635Z,13.47
2018-06-22T01:01:28.497Z,13.55
2018-06-22T01:03:57.508Z,13.50
2018-06-22T01:06:26.437Z,13.53
2018-06-22T01:08:55.210Z,13.44
2018-06-22T01:11:23.939Z,13.43
2018-06-22T01:13:52.591Z,13.44
2018-06-22T01:16:21.247Z,13.34
2018-06-22T01:18:50.133Z,13.42
2018-06-22T01:21:18.953Z,13.49
2018-06-22T01:23:48.223Z,13.29
2018-06-22T01:26:16.984Z,13.37
2018-06-22T01:28:45.794Z,13.39
2018-06-22T01:31:14.618Z,13.41
2018-06-22T01:33:43.534Z,13.20
2018-06-22T01:36:12.337Z,13.16
2018-06-22T01:38:41.236Z,13.18
2018-06-22T01:41:09.995Z,13.23
2018-06-22T01:43:38.963Z,13.22
2018-06-22T01:46:08.196Z,13.05
2018-06-22T01:48:37.513Z,12.94
2018-06-22T01:51:06.577Z,12.82
2018-06-22T01:53:35.352Z,12.79
2018-06-22T01:56:04.206Z,12.87
2018-06-22T01:58:33.056Z,12.88
2018-06-22T02:01:01.928Z,12.76
2018-06-22T02:03:31.196Z,12.68
2018-06-22T02:06:00.178Z,12.61
2018-06-22T02:08:29.740Z,12.58
2018-06-22T02:10:58.683Z,12.66
2018-06-22T02:13:27.697Z,12.57
2018-06-22T02:15:56.645Z,12.53
2018-06-22T02:18:25.750Z,12.64
2018-06-22T02:20:54.873Z,12.58
2018-06-22T02:23:23.860Z,12.59
2018-06-22T02:25:52.870Z,12.72
2018-06-22T02:28:21.750Z,12.66
2018-06-22T02:30:50.945Z,12.57
2018-06-22T02:33:19.920Z,12.43
2018-06-22T02:35:48.657Z,12.53
2018-06-22T02:38:17.615Z,12.53
2018-06-22T02:40:46.520Z,12.36
2018-06-22T02:43:15.354Z,12.39
2018-06-22T02:45:44.204Z,12.30
2018-06-22T02:48:13.125Z,12.21
2018-06-22T02:50:42.006Z,12.15
2018-06-22T02:53:10.861Z,12.23
2018-06-22T02:55:39.848Z,12.12
2018-06-22T02:58:08.763Z,12.27
2018-06-22T03:00:37.527Z,12.52
2018-06-22T03:03:06.478Z,12.59
2018-06-22T03:05:35.246Z,12.50
2018-06-22T03:08:04.140Z,12.40
2018-06-22T03:10:32.996Z,12.43
2018-06-22T03:13:01.833Z,12.35
2018-06-22T03:15:30.766Z,12.26
2018-06-22T03:17:59.861Z,12.29
2018-06-22T03:20:28.675Z,12.05
2018-06-22T03:22:57.599Z,12.21
2018-06-22T03:25:26.397Z,12.07
2018-06-22T03:27:55.555Z,12.24
2018-06-22T03:30:24.654Z,12.13
2018-06-22T03:32:53.669Z,12.11
2018-06-22T03:35:23.011Z,12.27
2018-06-22T03:37:51.961Z,12.23
2018-06-22T03:40:20.883Z,12.06
2018-06-22T03:42:49.882Z,12.02
2018-06-22T03:45:18.785Z,12.19
2018-06-22T03:47:47.551Z,12.26
2018-06-22T03:50:16.582Z,11.98
2018-06-22T03:52:45.357Z,11.89
2018-06-22T03:55:14.418Z,11.81
2018-06-22T03:57:43.493Z,11.75
2018-06-22T04:00:12.346Z,11.76
2018-06-22T04:02:41.186Z,11.73
2018-06-22T04:05:09.938Z,11.72
2018-06-22T04:07:38.811Z,11.65
2018-06-22T04:10:07.733Z,11.66
2018-06-22T04:12:36.490Z,11.84
2018-06-22T04:15:05.488Z,12.04
2018-06-22T04:17:38.497Z,11.94
2018-06-22T04:20:07.400Z,12.13
2018-06-22T04:22:36.471Z,11.95
2018-06-22T04:25:05.309Z,11.89
2018-06-22T04:27:34.422Z,12.08
2018-06-22T04:30:03.649Z,12.33
2018-06-22T04:32:32.662Z,12.38
2018-06-22T04:35:01.474Z,12.38
2018-06-22T04:37:30.556Z,12.40
2018-06-22T04:39:59.363Z,12.37
2018-06-22T04:42:28.094Z,12.61
2018-06-22T04:44:56.940Z,12.76
2018-06-22T04:47:25.838Z,12.35
2018-06-22T04:49:54.707Z,12.27
2018-06-22T04:52:23.612Z,12.10
2018-06-22T04:54:52.809Z,11.95
2018-06-22T04:57:21.701Z,12.02
2018-06-22T04:59:50.529Z,12.17
2018-06-22T05:02:19.445Z,12.01
2018-06-22T05:04:48.582Z,12.11
2018-06-22T05:07:17.426Z,12.02
2018-06-22T05:09:46.842Z,11.88
2018-06-22T05:12:16.239Z,11.87
2018-06-22T05:14:45.173Z,11.82
2018-06-22T05:17:14.034Z,11.86
2018-06-22T05:19:42.717Z,11.76
2018-06-22T05:22:11.833Z,12.08
2018-06-22T05:24:40.705Z,12.16
2018-06-22T05:27:09.545Z,12.27
2018-06-22T05:29:38.350Z,12.57
2018-06-22T05:32:07.170Z,12.25
2018-06-22T05:34:36.384Z,12.46
2018-06-22T05:37:05.598Z,12.14
2018-06-22T05:39:34.371Z,12.18
2018-06-22T05:42:03.182Z,12.06
2018-06-22T05:44:32.563Z,12.03
2018-06-22T05:47:01.310Z,12.12
2018-06-22T05:49:30.230Z,12.04
2018-06-22T05:51:59.154Z,12.00
2018-06-22T05:54:28.356Z,12.33
2018-06-22T05:56:57.387Z,12.31
2018-06-22T05:59:26.182Z,12.33
2018-06-22T06:01:55.121Z,12.30
2018-06-22T06:04:24.090Z,12.34
2018-06-22T06:06:53.044Z,12.27
2018-06-22T06:09:21.877Z,12.55
2018-06-22T06:11:50.757Z,12.46
2018-06-22T06:14:19.813Z,12.59
2018-06-22T06:16:48.534Z,12.38
2018-06-22T06:19:17.545Z,12.43
2018-06-22T06:21:46.362Z,12.46
2018-06-22T06:24:16.229Z,12.66
2018-06-22T06:26:45.042Z,12.78
2018-06-22T06:29:14.021Z,13.03
2018-06-22T06:31:42.769Z,13.09
2018-06-22T06:34:11.909Z,13.20
2018-06-22T06:36:40.787Z,12.90
2018-06-22T06:39:09.574Z,12.79
2018-06-22T06:41:38.591Z,12.97
2018-06-22T06:44:07.764Z,12.90
2018-06-22T06:46:36.655Z,13.17
2018-06-22T06:49:05.834Z,13.43
2018-06-22T06:51:34.806Z,13.56
2018-06-22T06:54:04.006Z,13.44
2018-06-22T06:56:32.802Z,13.46
2018-06-22T06:59:02.366Z,13.39
2018-06-22T07:01:31.544Z,13.42
2018-06-22T07:04:01.181Z,13.51
2018-06-22T07:06:30.074Z,14.17
2018-06-22T07:08:59.102Z,14.04
2018-06-22T07:11:28.041Z,14.06
2018-06-22T07:13:57.032Z,13.95
2018-06-22T07:16:26.313Z,13.70
2018-06-22T07:18:55.222Z,14.14
2018-06-22T07:21:23.984Z,14.46
2018-06-22T07:23:52.925Z,14.11
2018-06-22T07:26:21.798Z,14.15
2018-06-22T07:28:50.666Z,13.77
2018-06-22T07:31:19.634Z,13.60
2018-06-22T07:33:48.643Z,13.87
2018-06-22T07:36:17.815Z,13.77
2018-06-22T07:38:46.987Z,13.42
2018-06-22T07:41:15.906Z,13.39
2018-06-22T07:43:44.652Z,13.64
2018-06-22T07:46:13.653Z,14.04
2018-06-22T07:48:42.634Z,13.84
2018-06-22T07:51:11.556Z,13.90
2018-06-22T07:53:40.463Z,14.31
2018-06-22T07:56:09.333Z,14.82
2018-06-22T07:58:38.248Z,14.36
2018-06-22T08:01:07.692Z,14.19
2018-06-22T08:03:36.734Z,14.25
2018-06-22T08:06:05.661Z,14.19
2018-06-22T08:08:34.819Z,14.27
2018-06-22T08:11:03.795Z,14.45
2018-06-22T08:13:32.851Z,14.37
2018-06-22T08:16:01.759Z,14.60
2018-06-22T08:18:30.637Z,14.71
2018-06-22T08:20:59.709Z,15.17
2018-06-22T08:23:35.608Z,15.32
2018-06-22T08:26:04.444Z,15.43
2018-06-22T08:28:35.537Z,15.18
2018-06-22T08:31:04.477Z,15.11
2018-06-22T08:33:33.218Z,14.95
2018-06-22T08:36:02.142Z,15.13
2018-06-22T08:38:31.218Z,15.04
2018-06-22T08:41:00.162Z,15.47
2018-06-22T08:43:28.929Z,15.63
2018-06-22T08:45:59.184Z,15.57
2018-06-22T08:48:27.938Z,15.52
2018-06-22T08:50:56.891Z,15.64
2018-06-22T08:53:26.015Z,15.48
2018-06-22T08:55:54.970Z,15.18
2018-06-22T08:58:23.906Z,15.46
2018-06-22T09:00:52.896Z,15.46
2018-06-22T09:03:22.086Z,15.17
2018-06-22T09:05:51.034Z,14.85
2018-06-22T09:08:20.044Z,14.77
2018-06-22T09:10:48.824Z,14.51
2018-06-22T09:13:17.734Z,14.46
2018-06-22T09:15:46.627Z,14.39
2018-06-22T09:18:15.546Z,14.64
2018-06-22T09:20:44.536Z,14.38
2018-06-22T09:23:13.469Z,14.35
2018-06-22T09:25:42.538Z,14.57
2018-06-22T09:28:11.631Z,14.71
2018-06-22T09:30:40.406Z,14.69
2018-06-22T09:33:09.342Z,14.26
2018-06-22T09:35:38.207Z,14.28
2018-06-22T09:38:07.608Z,14.19
2018-06-22T09:40:36.508Z,14.10
2018-06-22T09:43:05.864Z,14.15
2018-06-22T09:45:34.663Z,13.91
2018-06-22T09:48:03.745Z,13.63
2018-06-22T09:50:32.747Z,13.47
2018-06-22T09:53:01.636Z,13.35
2018-06-22T09:55:30.319Z,13.16
2018-06-22T09:57:59.027Z,12.58
2018-06-22T10:00:28.039Z,12.64
2018-06-22T10:02:57.172Z,12.86
2018-06-22T10:05:26.401Z,12.68
2018-06-22T10:07:55.222Z,12.77
2018-06-22T10:10:24.055Z,12.85
2018-06-22T10:12:52.859Z,12.90
2018-06-22T10:15:21.888Z,13.13
2018-06-22T10:17:50.652Z,13.41
2018-06-22T10:20:19.894Z,13.33
2018-06-22T10:22:48.622Z,13.29
2018-06-22T10:25:17.749Z,13.48
2018-06-22T10:27:46.603Z,13.71
2018-06-22T10:30:15.522Z,13.90
2018-06-22T10:32:44.465Z,14.24
2018-06-22T10:35:13.414Z,13.96
2018-06-22T10:37:42.531Z,14.19
2018-06-22T10:40:11.535Z,14.15
2018-06-22T10:42:40.563Z,14.16
2018-06-22T10:45:09.743Z,14.08
2018-06-22T10:47:38.833Z,14.14
2018-06-22T10:50:07.900Z,13.99
2018-06-22T10:52:36.792Z,14.06
2018-06-22T10:55:06.043Z,14.33
2018-06-22T10:57:35.117Z,14.18
2018-06-22T11:00:04.154Z,14.83
2018-06-22T11:02:33.110Z,14.25
2018-06-22T11:05:02.027Z,14.52
2018-06-22T11:07:30.832Z,14.70
2018-06-22T11:09:59.929Z,14.73
2018-06-22T11:12:29.253Z,14.87
2018-06-22T11:15:01.454Z,15.03
2018-06-22T11:17:30.382Z,14.89
2018-06-22T11:19:59.382Z,14.37
2018-06-22T11:22:28.607Z,14.73
2018-06-22T11:24:57.292Z,15.14
2018-06-22T11:27:26.399Z,15.20
2018-06-22T11:29:55.222Z,14.95
2018-06-22T11:32:24.242Z,15.01
2018-06-22T11:34:53.166Z,14.77
2018-06-22T11:37:22.086Z,15.18
2018-06-22T11:39:51.222Z,15.34
2018-06-22T11:42:20.219Z,15.54
2018-06-22T11:44:48.929Z,15.54
2018-06-22T11:47:17.777Z,15.68
2018-06-22T11:49:46.699Z,15.76
2018-06-22T11:52:15.581Z,15.35
2018-06-22T11:54:45.098Z,15.40
2018-06-22T11:57:14.620Z,15.38
2018-06-22T11:59:43.614Z,15.71
2018-06-22T12:02:12.589Z,16.53
2018-06-22T12:04:41.547Z,16.74
2018-06-22T12:07:10.463Z,17.38
2018-06-22T12:09:39.281Z,17.88
2018-06-22T12:12:08.302Z,18.77
2018-06-22T12:14:37.137Z,16.51
2018-06-22T12:17:06.158Z,17.17
2018-06-22T12:19:34.901Z,18.00
2018-06-22T12:22:03.946Z,17.15
2018-06-22T12:24:33.030Z,17.75
2018-06-22T12:27:01.893Z,17.92
2018-06-22T12:29:30.962Z,18.04
2018-06-22T12:31:59.785Z,17.77
2018-06-22T12:34:28.785Z,17.53
2018-06-22T12:36:57.571Z,16.57
2018-06-22T12:39:26.658Z,15.98
2018-06-22T12:41:56.702Z,15.08
2018-06-22T12:44:25.661Z,15.13
2018-06-22T12:46:54.571Z,15.18
2018-06-22T12:49:23.585Z,15.89
2018-06-22T12:51:52.557Z,15.76
2018-06-22T12:54:21.360Z,16.06
2018-06-22T12:56:50.624Z,17.46
2018-06-22T12:59:19.686Z,17.91
2018-06-22T13:01:48.523Z,18.75
2018-06-22T13:04:17.228Z,18.68
2018-06-22T13:06:46.346Z,17.55
2018-06-22T13:09:15.149Z,17.23
2018-06-22T13:11:43.962Z,17.00
2018-06-22T13:14:12.949Z,17.41
2018-06-22T13:16:41.935Z,18.69
2018-06-22T13:19:10.794Z,19.56
2018-06-22T13:21:49.483Z,20.84
2018-06-22T13:24:19.281Z,18.77
2018-06-22T13:26:48.920Z,19.28
2018-06-22T13:29:17.757Z,19.22
2018-06-22T13:31:46.725Z,19.94
2018-06-22T13:34:16.733Z,19.57
2018-06-22T13:36:46.865Z,19.63
2018-06-22T13:39:17.066Z,19.76
2018-06-22T13:41:46.471Z,21.34
2018-06-22T13:44:15.221Z,20.50
2018-06-22T13:46:44.766Z,19.83
2018-06-22T13:49:13.975Z,19.34
2018-06-22T13:51:42.882Z,19.01
2018-06-22T13:54:11.860Z,18.30
2018-06-22T13:56:40.656Z,17.36
2018-06-22T13:59:09.754Z,17.24
2018-06-22T14:01:38.661Z,17.75
2018-06-22T14:04:13.116Z,17.67
2018-06-22T14:06:47.102Z,17.53
2018-06-22T14:09:16.268Z,17.00
2018-06-22T14:11:45.252Z,15.93
2018-06-22T14:14:14.163Z,14.19
2018-06-22T14:16:43.518Z,13.50
2018-06-22T14:19:12.614Z,13.27
2018-06-22T14:21:41.894Z,13.44
2018-06-22T14:24:10.639Z,13.63
2018-06-22T14:26:39.872Z,14.08
2018-06-22T14:29:09.158Z,14.48
2018-06-22T14:31:38.244Z,14.99
2018-06-22T14:34:07.297Z,15.22
2018-06-22T14:36:36.120Z,15.47
2018-06-22T14:39:08.331Z,15.79
2018-06-22T14:41:37.286Z,16.28
2018-06-22T14:44:06.765Z,16.26
2018-06-22T14:46:35.665Z,16.52
2018-06-22T14:49:04.997Z,16.53
2018-06-22T14:51:34.384Z,16.14
2018-06-22T14:54:08.469Z,15.74
2018-06-22T14:57:45.111Z,15.50
2018-06-22T15:00:18.994Z,14.95
2018-06-22T15:02:53.254Z,12.92
2018-06-22T15:05:27.350Z,12.25
2018-06-22T15:07:58.746Z,12.20
2018-06-22T15:10:27.868Z,12.14
2018-06-22T15:12:56.944Z,12.30
2018-06-22T15:15:25.949Z,12.66
2018-06-22T15:17:55.258Z,12.94
2018-06-22T15:20:24.428Z,13.07
2018-06-22T15:22:53.454Z,13.38
2018-06-22T15:25:22.383Z,13.68
2018-06-22T15:27:51.412Z,14.09
2018-06-22T15:30:20.328Z,14.32
2018-06-22T15:32:49.199Z,14.42
2018-06-22T15:35:23.082Z,14.64
2018-06-22T15:37:57.205Z,14.67
2018-06-22T15:40:31.262Z,15.09
2018-06-22T15:43:05.314Z,15.16
2018-06-22T15:45:39.273Z,15.15
2018-06-22T15:48:13.195Z,14.97
2018-06-22T15:50:47.579Z,14.99
2018-06-22T15:53:21.419Z,15.11
2018-06-22T15:55:50.879Z,15.39
2018-06-22T15:58:20.070Z,15.97
2018-06-22T16:00:49.222Z,15.78
2018-06-22T16:03:23.480Z,16.01
2018-06-22T16:05:52.390Z,16.37
2018-06-22T16:08:21.336Z,16.71
2018-06-22T16:10:50.070Z,17.15
2018-06-22T16:13:21.040Z,17.68
2018-06-22T16:15:56.159Z,17.38
2018-06-22T16:18:30.292Z,16.95
2018-06-22T16:21:04.214Z,17.12
2018-06-22T16:23:38.278Z,16.86
2018-06-22T16:26:12.350Z,16.26
2018-06-22T16:28:41.267Z,16.38
2018-06-22T16:31:10.376Z,16.53
2018-06-22T16:33:43.433Z,16.21
2018-06-22T16:36:12.470Z,16.49
2018-06-22T16:38:41.287Z,16.51
2018-06-22T16:41:10.252Z,16.56
2018-06-22T16:43:39.165Z,17.09
2018-06-22T16:46:08.148Z,17.44
2018-06-22T16:48:37.229Z,17.09
2018-06-22T16:51:06.383Z,17.23
2018-06-22T16:53:35.487Z,16.98
2018-06-22T16:56:04.441Z,16.65
2018-06-22T16:58:39.749Z,16.27
2018-06-22T17:01:10.176Z,16.35
2018-06-22T17:03:39.084Z,16.27
2018-06-22T17:06:08.625Z,16.14
2018-06-22T17:08:42.918Z,16.01
2018-06-22T17:11:16.954Z,15.93
2018-06-22T17:13:51.018Z,16.06
2018-06-22T17:16:24.979Z,16.01
2018-06-22T17:18:55.379Z,15.96
2018-06-22T17:21:24.375Z,16.00
2018-06-22T17:23:53.683Z,15.98
2018-06-22T17:26:22.585Z,15.87
2018-06-22T17:28:51.381Z,15.83
2018-06-22T17:31:20.300Z,15.89
2018-06-22T17:33:49.093Z,16.01
2018-06-22T17:36:17.937Z,16.01
2018-06-22T17:38:47.163Z,16.10
2018-06-22T17:41:16.249Z,15.95
2018-06-22T17:43:45.192Z,15.92
2018-06-22T17:46:13.964Z,15.89
2018-06-22T17:48:43.097Z,16.37
2018-06-22T17:51:12.219Z,17.28
2018-06-22T17:53:41.288Z,17.56
2018-06-22T17:56:10.395Z,17.95
2018-06-22T17:58:42.912Z,18.54
2018-06-22T18:01:16.689Z,18.62
2018-06-22T18:03:50.785Z,18.22
2018-06-22T18:06:24.710Z,18.46
2018-06-22T18:08:53.812Z,18.58
2018-06-22T18:12:27.717Z,18.42
2018-06-22T18:14:56.617Z,18.74
2018-06-22T18:17:25.690Z,18.49
2018-06-22T18:19:54.658Z,17.73
2018-06-22T18:22:24.007Z,17.17
2018-06-22T18:24:53.197Z,16.69
2018-06-22T18:27:22.484Z,16.75
2018-06-22T18:29:51.321Z,16.92
2018-06-22T18:32:20.317Z,16.93
2018-06-22T18:34:49.103Z,17.03
2018-06-22T18:37:17.971Z,16.96
2018-06-22T18:39:46.717Z,16.86
2018-06-22T18:42:15.494Z,16.54
2018-06-22T18:44:44.944Z,16.62
2018-06-22T18:47:13.996Z,16.52
2018-06-22T18:49:42.937Z,16.27
2018-06-22T18:52:17.050Z,16.05
2018-06-22T18:54:51.046Z,16.11
2018-06-22T18:57:25.157Z,15.99
2018-06-22T19:00:57.344Z,15.88
2018-06-22T19:10:34.646Z,15.73
2018-06-22T19:13:04.653Z,15.50
2018-06-22T19:15:33.621Z,15.49
2018-06-22T19:18:02.720Z,15.53
2018-06-22T19:20:31.463Z,15.51
2018-06-22T19:23:00.384Z,15.51
2018-06-22T19:25:29.325Z,15.27
2018-06-22T19:27:58.250Z,15.17
2018-06-22T19:30:27.216Z,15.19
2018-06-22T19:32:56.211Z,15.17
2018-06-22T19:35:25.129Z,15.11
2018-06-22T19:37:53.977Z,15.07
2018-06-22T19:40:22.826Z,15.17
2018-06-22T19:42:51.654Z,15.02
2018-06-22T19:45:25.646Z,15.07
2018-06-22T19:47:59.901Z,15.07
2018-06-22T19:50:33.829Z,14.97
2018-06-22T19:54:09.720Z,14.95
2018-06-22T19:56:38.885Z,14.84
2018-06-22T19:59:07.669Z,14.85
2018-06-22T20:01:36.953Z,14.93
2018-06-22T20:04:06.687Z,14.93
2018-06-22T20:06:35.698Z,14.84
2018-06-22T20:09:07.109Z,14.85
2018-06-22T20:11:36.103Z,14.81
2018-06-22T20:14:05.354Z,14.87
2018-06-22T20:16:34.526Z,14.85
2018-06-22T20:19:03.733Z,14.73
2018-06-22T20:21:32.605Z,14.69
2018-06-22T20:24:01.434Z,14.66
2018-06-22T20:26:30.173Z,14.61
2018-06-22T20:28:59.177Z,14.64
2018-06-22T20:31:33.260Z,14.54
2018-06-22T20:34:07.636Z,14.57
2018-06-22T20:36:41.613Z,14.56
2018-06-22T20:39:15.753Z,14.65
2018-06-22T20:41:49.782Z,14.67
2018-06-22T20:44:24.177Z,14.52
2018-06-22T20:46:58.140Z,14.51
2018-06-22T20:49:32.278Z,14.53
2018-06-22T20:52:01.240Z,14.44
2018-06-22T20:54:30.067Z,14.44
2018-06-22T20:56:58.978Z,14.43
2018-06-22T20:59:27.894Z,14.40
2018-06-22T21:01:57.325Z,14.40
2018-06-22T21:04:26.203Z,14.48
2018-06-22T21:06:55.260Z,14.62
2018-06-22T21:09:24.117Z,14.55
2018-06-22T21:11:53.105Z,14.56
2018-06-22T21:14:22.075Z,14.49
2018-06-22T21:16:50.901Z,14.44
2018-06-22T21:19:19.732Z,14.55
2018-06-22T21:21:53.837Z,14.50
2018-06-22T21:24:23.345Z,14.46
2018-06-22T21:26:52.139Z,14.37
2018-06-22T21:29:26.075Z,14.32
2018-06-22T21:32:00.182Z,14.24
2018-06-22T21:34:34.240Z,14.24
2018-06-22T21:37:08.757Z,14.18
2018-06-22T21:39:37.710Z,14.15
2018-06-22T21:42:06.589Z,14.22
2018-06-22T21:44:35.518Z,14.18
2018-06-22T21:47:04.744Z,14.16
2018-06-22T21:49:33.521Z,14.26
2018-06-22T21:52:02.546Z,14.22
2018-06-22T21:54:31.643Z,14.08
2018-06-22T21:57:00.472Z,14.08
2018-06-22T21:59:29.549Z,14.19
2018-06-22T22:01:58.409Z,14.19
2018-06-22T22:04:27.291Z,14.21
2018-06-22T22:06:56.198Z,14.16
2018-06-22T22:09:25.138Z,14.16
2018-06-22T22:11:54.480Z,14.15
2018-06-22T22:14:25.629Z,14.09
2018-06-22T22:16:54.909Z,14.10
2018-06-22T22:19:23.829Z,14.10
2018-06-22T22:21:52.853Z,14.16
2018-06-22T22:24:21.674Z,14.12
2018-06-22T22:26:50.677Z,14.20
2018-06-22T22:29:19.677Z,14.25
2018-06-22T22:31:48.726Z,14.27
2018-06-22T22:34:17.565Z,14.38
2018-06-22T22:36:46.255Z,14.40
2018-06-22T22:39:15.209Z,14.38
2018-06-22T22:41:44.318Z,14.34
2018-06-22T22:44:13.386Z,14.27
2018-06-22T22:46:42.424Z,14.18
2018-06-22T22:49:11.267Z,14.21
2018-06-22T22:51:40.398Z,14.14
2018-06-22T22:54:09.335Z,14.21
2018-06-22T22:56:38.254Z,14.12
2018-06-22T22:59:07.117Z,14.14
2018-06-22T23:01:35.881Z,14.04
2018-06-22T23:04:04.664Z,14.15
2018-06-22T23:06:33.609Z,14.11
2018-06-22T23:09:02.425Z,14.15
2018-06-22T23:11:31.347Z,14.09
2018-06-22T23:14:00.449Z,14.06
2018-06-22T23:16:35.819Z,14.01
2018-06-22T23:19:04.738Z,13.90
2018-06-22T23:21:33.886Z,13.90
2018-06-22T23:24:02.818Z,13.95
2018-06-22T23:26:35.567Z,13.82
2018-06-22T23:29:04.473Z,13.78
2018-06-22T23:31:33.323Z,13.81
2018-06-22T23:34:02.177Z,13.72
2018-06-22T23:36:31.110Z,13.73
2018-06-22T23:39:00.233Z,13.68
2018-06-22T23:41:29.136Z,13.75
2018-06-22T23:43:58.307Z,13.60
2018-06-22T23:46:27.077Z,13.62
2018-06-22T23:48:56.115Z,13.53
2018-06-22T23:51:25.026Z,13.51
2018-06-22T23:53:54.178Z,13.41
2018-06-22T23:56:23.282Z,13.48
2018-06-22T23:58:52.229Z,13.48
